Time;durP1;ratioP1;P1;durP2;ratioP2;P2;SDS_P1;SDS_P2;PMS_P1;PMS_P2;Temp;Humidity;BMP_temperature;BMP_pressure;BME280_temperature;BME280_humidity;BME280_pressure;Samples;Min_cycle;Max_cycle;Signal;HPM_P1;HPM_P2
2022/07/09 00:01:27;;;;;;;;;;;;;;;;;;4932662;28;19937;-62
2022/07/09 00:03:54;;;;;;;;;;;;;;;;;;4927942;28;21806;-61
2022/07/09 00:06:20;;;;;;;;;;;;;;;;;;4932780;28;19918;-62
2022/07/09 00:08:47;;;;;;;;;;;;;;;;;;4945335;28;19925;-63
2022/07/09 00:11:13;;;;;;;;;;;;;;;;;;4945405;28;19933;-62
2022/07/09 00:13:38;;;;;;;;;;;;;;;;;;4929217;28;20018;-62
2022/07/09 00:16:03;;;;;;;;;;;;;;;;;;4928774;28;19923;-62
2022/07/09 00:18:28;;;;;;;;;;;;;;;;;;4945031;28;19923;-61
2022/07/09 00:20:56;;;;;;;;;;;;;;;;;;4931344;28;19986;-61
2022/07/09 00:23:24;;;;;;;;;;;;;;;;;;4944216;28;19931;-62
2022/07/09 00:25:49;;;;;;;;;;;;;;;;;;4929464;28;19933;-63
2022/07/09 00:28:14;;;;;;;;;;;;;;;;;;4928563;28;19919;-62
2022/07/09 00:30:40;;;;;;;;;;;;;;;;;;4947675;28;20361;-63
2022/07/09 00:33:05;;;;;;;;;;;;;;;;;;4929934;28;19922;-62
2022/07/09 00:35:31;;;;;;;;;;;;;;;;;;4931939;28;19933;-62
2022/07/09 00:37:56;;;;;;;;;;;;;;;;;;4928419;28;19973;-63
2022/07/09 00:40:21;;;;;;;;;;;;;;;;;;4930538;28;20618;-62
2022/07/09 00:42:49;;;;;;;;;;;;;;;;;;4945836;28;19933;-62
2022/07/09 00:45:22;;;;;;;;;;;;;;;;;;4945452;28;20469;-62
2022/07/09 00:47:47;;;;;;;;;;;;;;;;;;4930489;28;20055;-63
2022/07/09 00:50:13;;;;;;;;;;;;;;;;;;4929614;28;19922;-63
2022/07/09 00:52:38;;;;;;;;;;;;;;;;;;4929430;28;20450;-62
2022/07/09 00:55:03;;;;;;;;;;;;;;;;;;4943831;28;19918;-62
2022/07/09 00:57:32;;;;;;;;;;;;;;;;;;4927533;28;21013;-62
2022/07/09 00:59:57;;;;;;;;;;;;;;;;;;4930210;28;19965;-62
2022/07/09 01:02:23;;;;;;;;;;;;;;;;;;4932622;28;20020;-62
2022/07/09 01:04:48;;;;;;;;;;;;;;;;;;4932030;28;19958;-62
2022/07/09 01:07:14;;;;;;;;;;;;;;;;;;4931963;28;20068;-62
2022/07/09 01:09:39;;;;;;;;;;;;;;;;;;4930195;28;19928;-62
2022/07/09 01:12:05;;;;;;;;;;;;;;;;;;4945970;28;20036;-62
2022/07/09 01:14:31;;;;;;;;;;;;;;;;;;4929833;28;19968;-61
2022/07/09 01:16:58;;;;;;;;;;;;;;;;;;4930040;28;19981;-62
2022/07/09 01:19:26;;;;;;;;;;;;;;;;;;4945176;28;20390;-61
2022/07/09 01:21:52;;;;;;;;;;;;;;;;;;4945481;28;19922;-61
2022/07/09 01:24:17;;;;;;;;;;;;;;;;;;4946003;28;19923;-62
2022/07/09 01:26:42;;;;;;;;;;;;;;;;;;4931213;28;19922;-63
2022/07/09 01:29:08;;;;;;;;;;;;;;;;;;4943414;28;19918;-62
2022/07/09 01:31:33;;;;;;;;;;;;;;;;;;4931723;28;19923;-62
2022/07/09 01:33:58;;;;;;;;;;;;;;;;;;4930507;28;19922;-62
2022/07/09 01:36:24;;;;;;;;;;;;;;;;;;4931615;28;20418;-62
2022/07/09 01:38:49;;;;;;;;;;;;;;;;;;4944545;28;19960;-62
2022/07/09 01:41:14;;;;;;;;;;;;;;;;;;4931086;28;21856;-61
2022/07/09 01:43:39;;;;;;;;;;;;;;;;;;4945152;28;20485;-62
2022/07/09 01:46:05;;;;;;;;;;;;;;;;;;4925499;28;19922;-61
2022/07/09 01:48:32;;;;;;;;;;;;;;;;;;4942998;28;20318;-65
2022/07/09 01:51:00;;;;;;;;;;;;;;;;;;4930573;28;20009;-62
2022/07/09 01:53:26;;;;;;;;;;;;;;;;;;4928497;28;20839;-61
2022/07/09 01:55:51;;;;;;;;;;;;;;;;;;4944635;28;19946;-61
2022/07/09 01:58:17;;;;;;;;;;;;;;;;;;4924248;28;19919;-61
2022/07/09 02:00:44;;;;;;;;;;;;;;;;;;4929200;28;19934;-60
2022/07/09 02:03:10;;;;;;;;;;;;;;;;;;4927019;28;19996;-62
2022/07/09 02:05:37;;;;;;;;;;;;;;;;;;4926767;28;20009;-61
2022/07/09 02:08:03;;;;;;;;;;;;;;;;;;4927978;28;19923;-62
2022/07/09 02:10:30;;;;;;;;;;;;;;;;;;4929456;28;19933;-62
2022/07/09 02:12:56;;;;;;;;;;;;;;;;;;4926065;28;19953;-62
2022/07/09 02:15:23;;;;;;;;;;;;;;;;;;4944505;28;19952;-63
2022/07/09 02:17:49;;;;;;;;;;;;;;;;;;4943006;28;19978;-61
2022/07/09 02:20:14;;;;;;;;;;;;;;;;;;4927548;28;19964;-62
2022/07/09 02:22:40;;;;;;;;;;;;;;;;;;4926469;28;19918;-60
2022/07/09 02:25:08;;;;;;;;;;;;;;;;;;4943352;28;20832;-60
2022/07/09 02:27:33;;;;;;;;;;;;;;;;;;4928878;28;20398;-61
2022/07/09 02:30:01;;;;;;;;;;;;;;;;;;4928449;28;20057;-60
2022/07/09 02:32:29;;;;;;;;;;;;;;;;;;4926133;28;20473;-62
2022/07/09 02:34:55;;;;;;;;;;;;;;;;;;4928523;28;19954;-61
2022/07/09 02:37:20;;;;;;;;;;;;;;;;;;4944545;28;19922;-60
2022/07/09 02:39:48;;;;;;;;;;;;;;;;;;4943443;28;19949;-60
2022/07/09 02:42:13;;;;;;;;;;;;;;;;;;4926853;28;19980;-61
2022/07/09 02:44:38;;;;;;;;;;;;;;;;;;4927803;28;20455;-61
2022/07/09 02:47:06;;;;;;;;;;;;;;;;;;4925951;28;20347;-61
2022/07/09 02:49:32;;;;;;;;;;;;;;;;;;4928697;28;20033;-61
2022/07/09 02:52:01;;;;;;;;;;;;;;;;;;4924795;28;19946;-61
2022/07/09 02:54:28;;;;;;;;;;;;;;;;;;4923952;28;20334;-60
2022/07/09 02:56:53;;;;;;;;;;;;;;;;;;4927036;28;20798;-61
2022/07/09 02:59:21;;;;;;;;;;;;;;;;;;4941822;28;19930;-62
2022/07/09 03:01:47;;;;;;;;;;;;;;;;;;4928983;28;19935;-62
2022/07/09 03:04:12;;;;;;;;;;;;;;;;;;4927895;28;20877;-62
2022/07/09 03:06:42;;;;;;;;;;;;;;;;;;4943459;28;19997;-62
2022/07/09 03:09:10;;;;;;;;;;;;;;;;;;4940775;28;19922;-62
2022/07/09 03:11:37;;;;;;;;;;;;;;;;;;4927575;28;19925;-62
2022/07/09 03:14:03;;;;;;;;;;;;;;;;;;4926918;28;19985;-61
2022/07/09 03:16:28;;;;;;;;;;;;;;;;;;4942465;28;19918;-62
2022/07/09 03:18:56;;;;;;;;;;;;;;;;;;4926514;28;19918;-60
2022/07/09 03:21:21;;;;;;;;;;;;;;;;;;4925132;28;19922;-61
2022/07/09 03:23:49;;;;;;;;;;;;;;;;;;4924085;28;19977;-62
2022/07/09 03:26:16;;;;;;;;;;;;;;;;;;4943243;28;19930;-62
2022/07/09 03:28:44;;;;;;;;;;;;;;;;;;4940909;28;19957;-61
2022/07/09 03:31:09;;;;;;;;;;;;;;;;;;4929277;28;20049;-62
2022/07/09 03:33:35;;;;;;;;;;;;;;;;;;4926715;28;20416;-61
2022/07/09 03:36:03;;;;;;;;;;;;;;;;;;4927101;28;19922;-62
2022/07/09 03:38:31;;;;;;;;;;;;;;;;;;4941737;28;19922;-61
2022/07/09 03:40:57;;;;;;;;;;;;;;;;;;4942358;28;19923;-61
2022/07/09 03:43:23;;;;;;;;;;;;;;;;;;4927030;28;20429;-61
2022/07/09 03:45:48;;;;;;;;;;;;;;;;;;4928033;28;19925;-61
2022/07/09 03:48:17;;;;;;;;;;;;;;;;;;4924513;28;19934;-62
2022/07/09 03:50:44;;;;;;;;;;;;;;;;;;4928125;28;19922;-62
2022/07/09 03:53:12;;;;;;;;;;;;;;;;;;4942276;28;19919;-61
2022/07/09 03:55:40;;;;;;;;;;;;;;;;;;4924523;28;19997;-61
2022/07/09 03:58:08;;;;;;;;;;;;;;;;;;4927921;28;20297;-62
2022/07/09 04:00:33;;;;;;;;;;;;;;;;;;4927560;28;19922;-61
2022/07/09 04:02:58;;;;;;;;;;;;;;;;;;4924821;28;21168;-62
2022/07/09 04:05:24;;;;;;;;;;;;;;;;;;4927416;28;20337;-61
2022/07/09 04:07:52;;;;;;;;;;;;;;;;;;4940978;28;20642;-62
2022/07/09 04:10:19;;;;;;;;;;;;;;;;;;4927353;28;19923;-62
2022/07/09 04:12:47;;;;;;;;;;;;;;;;;;4926775;28;20852;-62
2022/07/09 04:15:13;;;;;;;;;;;;;;;;;;4926024;28;20026;-62
2022/07/09 04:17:38;;;;;;;;;;;;;;;;;;4940745;28;20916;-61
2022/07/09 04:20:06;;;;;;;;;;;;;;;;;;4926873;29;19969;-61
2022/07/09 04:22:34;;;;;;;;;;;;;;;;;;4925324;28;19923;-62
2022/07/09 04:25:01;;;;;;;;;;;;;;;;;;4929469;28;20589;-61
2022/07/09 04:27:29;;;;;;;;;;;;;;;;;;4928885;28;20597;-62
2022/07/09 04:29:57;;;;;;;;;;;;;;;;;;4930405;28;20068;-63
2022/07/09 04:32:25;;;;;;;;;;;;;;;;;;4946151;28;20524;-62
2022/07/09 04:34:55;;;;;;;;;;;;;;;;;;4945596;28;19922;-63
2022/07/09 04:37:21;;;;;;;;;;;;;;;;;;4931876;28;19926;-62
2022/07/09 04:39:51;;;;;;;;;;;;;;;;;;4929787;28;20017;-61
2022/07/09 04:42:16;;;;;;;;;;;;;;;;;;4929078;28;19922;-61
2022/07/09 04:44:44;;;;;;;;;;;;;;;;;;4944908;28;20410;-62
2022/07/09 04:47:11;;;;;;;;;;;;;;;;;;4945578;28;19927;-61
2022/07/09 04:49:40;;;;;;;;;;;;;;;;;;4945202;28;19961;-62
2022/07/09 04:52:07;;;;;;;;;;;;;;;;;;4929240;28;19942;-61
2022/07/09 04:54:35;;;;;;;;;;;;;;;;;;4927717;28;19919;-62
2022/07/09 04:57:00;;;;;;;;;;;;;;;;;;4932158;28;19918;-62
2022/07/09 04:59:28;;;;;;;;;;;;;;;;;;4925754;28;19958;-62
2022/07/09 05:01:54;;;;;;;;;;;;;;;;;;4931264;28;19930;-62
2022/07/09 05:04:20;;;;;;;;;;;;;;;;;;4928193;28;19944;-62
2022/07/09 05:06:48;;;;;;;;;;;;;;;;;;4925722;28;19918;-63
2022/07/09 05:09:15;;;;;;;;;;;;;;;;;;4927003;28;20313;-62
2022/07/09 05:11:46;;;;;;;;;;;;;;;;;;4925466;28;19958;-61
2022/07/09 05:14:13;;;;;;;;;;;;;;;;;;4929928;28;19926;-63
2022/07/09 05:16:44;;;;;;;;;;;;;;;;;;4928199;28;19918;-63
2022/07/09 05:19:11;;;;;;;;;;;;;;;;;;4928860;28;19922;-63
2022/07/09 05:21:37;;;;;;;;;;;;;;;;;;4927492;28;19934;-63
2022/07/09 05:24:05;;;;;;;;;;;;;;;;;;4924146;28;19922;-62
2022/07/09 05:26:31;;;;;;;;;;;;;;;;;;4931734;28;20001;-64
2022/07/09 05:28:57;;;;;;;;;;;;;;;;;;4926833;28;20790;-62
2022/07/09 05:31:22;;;;;;;;;;;;;;;;;;4928141;28;20488;-61
2022/07/09 05:33:48;;;;;;;;;;;;;;;;;;4929185;28;19927;-61
2022/07/09 05:36:13;;;;;;;;;;;;;;;;;;4927342;28;20469;-62
2022/07/09 05:38:38;;;;;;;;;;;;;;;;;;4926091;28;19950;-63
2022/07/09 05:41:04;;;;;;;;;;;;;;;;;;4942638;28;19933;-62
2022/07/09 05:43:29;;;;;;;;;;;;;;;;;;4928501;28;20954;-62
2022/07/09 05:45:54;;;;;;;;;;;;;;;;;;4931368;28;19979;-63
2022/07/09 05:48:20;;;;;;;;;;;;;;;;;;4928979;28;19922;-63
2022/07/09 05:50:46;;;;;;;;;;;;;;;;;;4945988;28;19923;-61
2022/07/09 05:53:11;;;;;;;;;;;;;;;;;;4927780;28;19929;-63
2022/07/09 05:55:37;;;;;;;;;;;;;;;;;;4925376;28;20341;-62
2022/07/09 05:58:02;;;;;;;;;;;;;;;;;;4943413;28;19923;-63
2022/07/09 06:00:28;;;;;;;;;;;;;;;;;;4925555;28;20000;-62
2022/07/09 06:02:56;;;;;;;;;;;;;;;;;;4940739;28;19930;-63
2022/07/09 06:05:22;;;;;;;;;;;;;;;;;;4930692;28;20602;-62
2022/07/09 06:07:48;;;;;;;;;;;;;;;;;;4928201;28;19922;-63
2022/07/09 06:10:16;;;;;;;;;;;;;;;;;;4925052;28;19993;-63
2022/07/09 06:12:44;;;;;;;;;;;;;;;;;;4926935;28;20066;-63
2022/07/09 06:15:09;;;;;;;;;;;;;;;;;;4927485;28;19923;-62
2022/07/09 06:17:36;;;;;;;;;;;;;;;;;;4929695;28;19956;-61
2022/07/09 06:20:02;;;;;;;;;;;;;;;;;;4927714;28;20374;-61
2022/07/09 06:22:28;;;;;;;;;;;;;;;;;;4926911;28;19932;-61
2022/07/09 06:24:53;;;;;;;;;;;;;;;;;;4925207;28;20017;-63
2022/07/09 06:27:18;;;;;;;;;;;;;;;;;;4928484;28;19966;-62
2022/07/09 06:29:43;;;;;;;;;;;;;;;;;;4942961;28;20497;-62
2022/07/09 06:32:09;;;;;;;;;;;;;;;;;;4927494;28;19930;-63
2022/07/09 06:34:34;;;;;;;;;;;;;;;;;;4942416;28;19933;-62
2022/07/09 06:36:59;;;;;;;;;;;;;;;;;;4925790;28;19918;-63
2022/07/09 06:42:08;;;;;;;;;;;;;;;;;;4930084;28;19918;-62
2022/07/09 06:44:34;;;;;;;;;;;;;;;;;;4941781;28;19923;-63
2022/07/09 06:46:59;;;;;;;;;;;;;;;;;;4930044;28;19927;-62
2022/07/09 06:49:24;;;;;;;;;;;;;;;;;;4925974;28;20397;-62
2022/07/09 06:51:50;;;;;;;;;;;;;;;;;;4930498;28;20497;-62
2022/07/09 06:54:18;;;;;;;;;;;;;;;;;;4928202;28;19919;-62
2022/07/09 06:56:44;;;;;;;;;;;;;;;;;;4942806;28;19918;-61
2022/07/09 06:59:09;;;;;;;;;;;;;;;;;;4928576;28;19922;-62
2022/07/09 07:01:34;;;;;;;;;;;;;;;;;;4928870;28;19930;-62
2022/07/09 07:04:00;;;;;;;;;;;;;;;;;;4926369;28;19950;-62
2022/07/09 07:06:28;;;;;;;;;;;;;;;;;;4944004;28;20421;-63
2022/07/09 07:08:53;;;;;;;;;;;;;;;;;;4940008;28;20442;-62
2022/07/09 07:11:21;;;;;;;;;;;;;;;;;;4941972;28;19955;-62
2022/07/09 07:13:48;;;;;;;;;;;;;;;;;;4926192;28;19929;-62
2022/07/09 07:16:14;;;;;;;;;;;;;;;;;;4943077;28;19923;-62
2022/07/09 07:18:44;;;;;;;;;;;;;;;;;;4943193;28;19919;-62
2022/07/09 07:21:09;;;;;;;;;;;;;;;;;;4926269;28;20001;-61
2022/07/09 07:23:35;;;;;;;;;;;;;;;;;;4925872;28;20836;-63
2022/07/09 07:26:00;;;;;;;;;;;;;;;;;;4926320;28;20390;-62
2022/07/09 07:28:25;;;;;;;;;;;;;;;;;;4924934;28;20404;-64
2022/07/09 07:30:50;;;;;;;;;;;;;;;;;;4942782;28;19938;-64
2022/07/09 07:33:16;;;;;;;;;;;;;;;;;;4925730;28;20735;-63
2022/07/09 07:35:41;;;;;;;;;;;;;;;;;;4926388;28;19933;-64
2022/07/09 07:38:09;;;;;;;;;;;;;;;;;;4927463;28;19958;-63
2022/07/09 07:40:34;;;;;;;;;;;;;;;;;;4923663;28;19973;-63
2022/07/09 07:43:00;;;;;;;;;;;;;;;;;;4924621;28;19938;-62
2022/07/09 07:45:25;;;;;;;;;;;;;;;;;;4921751;28;19932;-61
2022/07/09 07:47:54;;;;;;;;;;;;;;;;;;4928612;28;19929;-63
2022/07/09 07:50:24;;;;;;;;;;;;;;;;;;4923762;28;19923;-61
2022/07/09 07:52:55;;;;;;;;;;;;;;;;;;4925058;28;19942;-61
2022/07/09 07:55:21;;;;;;;;;;;;;;;;;;4927063;28;19919;-62
2022/07/09 07:57:46;;;;;;;;;;;;;;;;;;4941907;28;19945;-63
2022/07/09 08:00:12;;;;;;;;;;;;;;;;;;4929422;28;19981;-63
2022/07/09 08:02:39;;;;;;;;;;;;;;;;;;4931094;28;19970;-63
2022/07/09 08:05:05;;;;;;;;;;;;;;;;;;4931853;28;19923;-63
2022/07/09 08:07:30;;;;;;;;;;;;;;;;;;4932313;28;19976;-63
2022/07/09 08:09:58;;;;;;;;;;;;;;;;;;4944934;28;20392;-64
2022/07/09 08:12:24;;;;;;;;;;;;;;;;;;4945847;28;19973;-63
2022/07/09 08:14:49;;;;;;;;;;;;;;;;;;4944530;28;19966;-63
2022/07/09 08:17:14;;;;;;;;;;;;;;;;;;4927869;28;19919;-63
2022/07/09 08:19:42;;;;;;;;;;;;;;;;;;4931444;28;19926;-64
2022/07/09 08:22:10;;;;;;;;;;;;;;;;;;4929128;28;19929;-64
2022/07/09 08:24:35;;;;;;;;;;;;;;;;;;4930370;28;20005;-62
2022/07/09 08:27:01;;;;;;;;;;;;;;;;;;4942249;28;19922;-63
2022/07/09 08:29:26;;;;;;;;;;;;;;;;;;4930716;28;19922;-63
2022/07/09 08:31:52;;;;;;;;;;;;;;;;;;4931886;28;19997;-62
2022/07/09 08:34:20;;;;;;;;;;;;;;;;;;4929963;28;19965;-63
2022/07/09 08:36:45;;;;;;;;;;;;;;;;;;4932231;28;19918;-61
2022/07/09 08:39:11;;;;;;;;;;;;;;;;;;4943766;28;19977;-64
2022/07/09 08:41:37;;;;;;;;;;;;;;;;;;4928769;28;20585;-65
2022/07/09 08:44:03;;;;;;;;;;;;;;;;;;4945905;28;21940;-65
2022/07/09 08:46:28;;;;;;;;;;;;;;;;;;4944942;28;19918;-65
2022/07/09 08:48:54;;;;;;;;;;;;;;;;;;4945720;28;19922;-64
2022/07/09 08:51:20;;;;;;;;;;;;;;;;;;4943985;28;20461;-64
2022/07/09 08:53:48;;;;;;;;;;;;;;;;;;4929190;28;19934;-62
2022/07/09 08:56:13;;;;;;;;;;;;;;;;;;4931249;28;19923;-64
2022/07/09 08:58:39;;;;;;;;;;;;;;;;;;4928277;28;22222;-64
2022/07/09 09:01:08;;;;;;;;;;;;;;;;;;4927358;28;20053;-64
2022/07/09 09:03:33;;;;;;;;;;;;;;;;;;4930509;28;21776;-67
2022/07/09 09:06:02;;;;;;;;;;;;;;;;;;4945184;28;19945;-63
2022/07/09 09:08:27;;;;;;;;;;;;;;;;;;4928580;28;19923;-63
2022/07/09 09:10:55;;;;;;;;;;;;;;;;;;4924724;28;20662;-63
2022/07/09 09:13:20;;;;;;;;;;;;;;;;;;4925308;28;19926;-64
2022/07/09 09:15:46;;;;;;;;;;;;;;;;;;4929474;28;19923;-64
2022/07/09 09:18:12;;;;;;;;;;;;;;;;;;4929272;28;19922;-64
2022/07/09 09:20:37;;;;;;;;;;;;;;;;;;4927346;28;19961;-64
2022/07/09 09:23:04;;;;;;;;;;;;;;;;;;4942125;28;20001;-63
2022/07/09 09:25:30;;;;;;;;;;;;;;;;;;4929108;28;20024;-65
2022/07/09 09:27:58;;;;;;;;;;;;;;;;;;4927012;28;20563;-63
2022/07/09 09:30:23;;;;;;;;;;;;;;;;;;4945030;28;20322;-62
2022/07/09 09:32:48;;;;;;;;;;;;;;;;;;4944301;28;22064;-67
2022/07/09 09:35:14;;;;;;;;;;;;;;;;;;4930565;28;20804;-63
2022/07/09 09:37:40;;;;;;;;;;;;;;;;;;4927750;28;20513;-65
2022/07/09 09:40:05;;;;;;;;;;;;;;;;;;4943926;28;19922;-63
2022/07/09 09:42:31;;;;;;;;;;;;;;;;;;4929953;28;19918;-63
2022/07/09 09:44:57;;;;;;;;;;;;;;;;;;4930517;28;20405;-63
2022/07/09 09:47:23;;;;;;;;;;;;;;;;;;4925444;28;19922;-64
2022/07/09 09:49:49;;;;;;;;;;;;;;;;;;4943461;28;19970;-63
2022/07/09 09:52:14;;;;;;;;;;;;;;;;;;4943626;28;19922;-63
2022/07/09 09:54:39;;;;;;;;;;;;;;;;;;4929291;28;20310;-62
2022/07/09 09:57:08;;;;;;;;;;;;;;;;;;4930088;28;19929;-64
2022/07/09 09:59:33;;;;;;;;;;;;;;;;;;4925091;28;19925;-64
2022/07/09 10:01:59;;;;;;;;;;;;;;;;;;4927587;28;19931;-65
2022/07/09 10:04:25;;;;;;;;;;;;;;;;;;4929032;28;19925;-62
2022/07/09 10:06:50;;;;;;;;;;;;;;;;;;4941980;28;19923;-66
2022/07/09 10:09:19;;;;;;;;;;;;;;;;;;4941702;28;20008;-63
2022/07/09 10:11:45;;;;;;;;;;;;;;;;;;4925273;28;19929;-65
2022/07/09 10:14:16;;;;;;;;;;;;;;;;;;4926282;28;19926;-64
2022/07/09 10:16:44;;;;;;;;;;;;;;;;;;4943808;28;19922;-63
2022/07/09 10:19:12;;;;;;;;;;;;;;;;;;4943298;28;19954;-65
2022/07/09 10:21:38;;;;;;;;;;;;;;;;;;4925175;28;20420;-66
2022/07/09 10:24:04;;;;;;;;;;;;;;;;;;4924817;28;19977;-66
2022/07/09 10:26:30;;;;;;;;;;;;;;;;;;4924514;28;19930;-64
2022/07/09 10:28:55;;;;;;;;;;;;;;;;;;4939143;28;19918;-64
2022/07/09 10:31:23;;;;;;;;;;;;;;;;;;4925602;28;20588;-65
2022/07/09 10:33:49;;;;;;;;;;;;;;;;;;4925893;28;19927;-64
2022/07/09 10:36:16;;;;;;;;;;;;;;;;;;4928991;28;19923;-63
2022/07/09 10:38:44;;;;;;;;;;;;;;;;;;4942175;28;19919;-66
2022/07/09 10:41:09;;;;;;;;;;;;;;;;;;4928566;28;19928;-63
2022/07/09 10:43:35;;;;;;;;;;;;;;;;;;4942979;28;20274;-62
2022/07/09 10:46:00;;;;;;;;;;;;;;;;;;4926303;28;20005;-64
2022/07/09 10:48:26;;;;;;;;;;;;;;;;;;4926358;28;19957;-66
2022/07/09 10:50:52;;;;;;;;;;;;;;;;;;4929672;28;19930;-66
2022/07/09 10:53:20;;;;;;;;;;;;;;;;;;4940721;28;19974;-64
2022/07/09 10:55:45;;;;;;;;;;;;;;;;;;4943795;28;19922;-65
2022/07/09 10:58:10;;;;;;;;;;;;;;;;;;4925186;28;19973;-64
2022/07/09 11:00:36;;;;;;;;;;;;;;;;;;4924226;28;19922;-63
2022/07/09 11:03:05;;;;;;;;;;;;;;;;;;4942478;28;19954;-65
2022/07/09 11:05:30;;;;;;;;;;;;;;;;;;4926217;28;20655;-64
2022/07/09 11:07:56;;;;;;;;;;;;;;;;;;4925555;28;19927;-65
2022/07/09 11:10:22;;;;;;;;;;;;;;;;;;4927032;28;19930;-67
2022/07/09 11:12:49;;;;;;;;;;;;;;;;;;4940133;28;19938;-66
2022/07/09 11:15:14;;;;;;;;;;;;;;;;;;4925163;28;19925;-66
2022/07/09 11:17:42;;;;;;;;;;;;;;;;;;4924308;28;19925;-65
2022/07/09 11:20:07;;;;;;;;;;;;;;;;;;4927382;28;19986;-66
2022/07/09 11:22:33;;;;;;;;;;;;;;;;;;4926124;28;19933;-67
2022/07/09 11:25:04;;;;;;;;;;;;;;;;;;4925837;28;19933;-64
2022/07/09 11:27:29;;;;;;;;;;;;;;;;;;4940406;28;19961;-66
2022/07/09 11:29:57;;;;;;;;;;;;;;;;;;4940209;28;19931;-64
2022/07/09 11:32:25;;;;;;;;;;;;;;;;;;4943846;28;19925;-66
2022/07/09 11:34:51;;;;;;;;;;;;;;;;;;4926686;28;19969;-67
2022/07/09 11:37:16;;;;;;;;;;;;;;;;;;4942656;28;20384;-65
2022/07/09 11:39:47;;;;;;;;;;;;;;;;;;4924248;28;19922;-65
2022/07/09 11:42:15;;;;;;;;;;;;;;;;;;4940762;28;19977;-64
2022/07/09 11:44:43;;;;;;;;;;;;;;;;;;4924604;28;19922;-64
2022/07/09 11:47:08;;;;;;;;;;;;;;;;;;4941578;28;19963;-68
2022/07/09 11:49:38;;;;;;;;;;;;;;;;;;4927669;28;20018;-66
2022/07/09 11:52:06;;;;;;;;;;;;;;;;;;4928371;28;20002;-66
2022/07/09 11:54:34;;;;;;;;;;;;;;;;;;4927263;28;19927;-63
2022/07/09 11:57:01;;;;;;;;;;;;;;;;;;4941437;28;20013;-66
2022/07/09 11:59:27;;;;;;;;;;;;;;;;;;4941238;28;19937;-67
2022/07/09 12:01:53;;;;;;;;;;;;;;;;;;4925123;28;19981;-67
2022/07/09 12:04:19;;;;;;;;;;;;;;;;;;4928601;28;19923;-67
2022/07/09 12:06:47;;;;;;;;;;;;;;;;;;4925004;28;20393;-67
2022/07/09 12:09:13;;;;;;;;;;;;;;;;;;4941909;28;20385;-66
2022/07/09 12:11:41;;;;;;;;;;;;;;;;;;4928064;28;19930;-68
2022/07/09 12:14:06;;;;;;;;;;;;;;;;;;4927883;28;20677;-65
2022/07/09 12:16:32;;;;;;;;;;;;;;;;;;4926202;28;19922;-69
2022/07/09 12:18:58;;;;;;;;;;;;;;;;;;4925900;28;19922;-67
2022/07/09 12:21:23;;;;;;;;;;;;;;;;;;4926558;28;19977;-66
2022/07/09 12:23:49;;;;;;;;;;;;;;;;;;4924292;28;19922;-63
2022/07/09 12:26:14;;;;;;;;;;;;;;;;;;4943664;28;19919;-65
2022/07/09 12:28:40;;;;;;;;;;;;;;;;;;4921890;28;20010;-71
2022/07/09 12:31:06;;;;;;;;;;;;;;;;;;4925592;28;20921;-65
2022/07/09 12:33:32;;;;;;;;;;;;;;;;;;4924257;28;19926;-65
2022/07/09 12:35:58;;;;;;;;;;;;;;;;;;4926485;28;20970;-67
2022/07/09 12:38:23;;;;;;;;;;;;;;;;;;4922950;28;19923;-71
2022/07/09 12:40:49;;;;;;;;;;;;;;;;;;4943097;28;19918;-66
2022/07/09 12:43:14;;;;;;;;;;;;;;;;;;4922442;28;19930;-70
2022/07/09 12:45:41;;;;;;;;;;;;;;;;;;4945827;28;20026;-65
2022/07/09 12:48:09;;;;;;;;;;;;;;;;;;4928629;28;19922;-67
2022/07/09 12:50:37;;;;;;;;;;;;;;;;;;4945360;28;20366;-65
2022/07/09 12:53:04;;;;;;;;;;;;;;;;;;4944958;28;19929;-66
2022/07/09 12:55:30;;;;;;;;;;;;;;;;;;4944312;28;19926;-66
2022/07/09 12:57:57;;;;;;;;;;;;;;;;;;4930597;28;19954;-67
2022/07/09 13:00:23;;;;;;;;;;;;;;;;;;4942889;28;20124;-66
2022/07/09 13:02:49;;;;;;;;;;;;;;;;;;4929969;28;20037;-65
2022/07/09 13:05:16;;;;;;;;;;;;;;;;;;4930749;28;20438;-66
2022/07/09 13:07:42;;;;;;;;;;;;;;;;;;4929074;28;19929;-66
2022/07/09 13:10:10;;;;;;;;;;;;;;;;;;4944649;28;19926;-67
2022/07/09 13:12:35;;;;;;;;;;;;;;;;;;4943229;28;19929;-67
2022/07/09 13:15:01;;;;;;;;;;;;;;;;;;4942724;28;20295;-67
2022/07/09 13:17:29;;;;;;;;;;;;;;;;;;4926914;28;19934;-67
2022/07/09 13:19:54;;;;;;;;;;;;;;;;;;4927596;28;20030;-66
2022/07/09 13:22:19;;;;;;;;;;;;;;;;;;4927763;28;19919;-68
2022/07/09 13:24:45;;;;;;;;;;;;;;;;;;4927757;28;20061;-70
2022/07/09 13:27:12;;;;;;;;;;;;;;;;;;4928273;28;19923;-67
2022/07/09 13:29:38;;;;;;;;;;;;;;;;;;4942470;28;19922;-70
2022/07/09 13:32:06;;;;;;;;;;;;;;;;;;4928804;28;19973;-65
2022/07/09 13:34:34;;;;;;;;;;;;;;;;;;4929348;28;21790;-67
2022/07/09 13:36:59;;;;;;;;;;;;;;;;;;4929113;28;19919;-65
2022/07/09 13:39:29;;;;;;;;;;;;;;;;;;4943438;28;20429;-64
2022/07/09 13:41:55;;;;;;;;;;;;;;;;;;4929629;28;19944;-67
2022/07/09 13:44:20;;;;;;;;;;;;;;;;;;4925255;28;20305;-67
2022/07/09 13:46:47;;;;;;;;;;;;;;;;;;4942952;28;21070;-66
2022/07/09 13:49:13;;;;;;;;;;;;;;;;;;4943362;28;19973;-67
2022/07/09 13:51:40;;;;;;;;;;;;;;;;;;4929486;28;19926;-65
2022/07/09 13:54:06;;;;;;;;;;;;;;;;;;4928518;28;20325;-65
2022/07/09 13:56:31;;;;;;;;;;;;;;;;;;4928031;28;20006;-65
2022/07/09 13:58:57;;;;;;;;;;;;;;;;;;4944112;28;19957;-67
2022/07/09 14:01:25;;;;;;;;;;;;;;;;;;4926293;28;19930;-65
2022/07/09 14:03:54;;;;;;;;;;;;;;;;;;4944958;28;19927;-68
2022/07/09 14:06:20;;;;;;;;;;;;;;;;;;4943864;28;22177;-68
2022/07/09 14:08:46;;;;;;;;;;;;;;;;;;4927683;28;19918;-65
2022/07/09 14:11:11;;;;;;;;;;;;;;;;;;4929531;28;19993;-63
2022/07/09 14:13:37;;;;;;;;;;;;;;;;;;4926415;28;19922;-63
2022/07/09 14:16:02;;;;;;;;;;;;;;;;;;4929189;28;20383;-65
2022/07/09 14:18:28;;;;;;;;;;;;;;;;;;4928591;28;19926;-66
2022/07/09 14:20:54;;;;;;;;;;;;;;;;;;4928277;28;19923;-64
2022/07/09 14:23:19;;;;;;;;;;;;;;;;;;4924763;28;19919;-68
2022/07/09 14:25:45;;;;;;;;;;;;;;;;;;4926717;28;19926;-65
2022/07/09 14:28:11;;;;;;;;;;;;;;;;;;4940528;28;19923;-69
2022/07/09 14:30:40;;;;;;;;;;;;;;;;;;4926560;28;19926;-68
2022/07/09 14:33:06;;;;;;;;;;;;;;;;;;4941860;28;20484;-68
2022/07/09 14:35:31;;;;;;;;;;;;;;;;;;4944304;28;20040;-66
2022/07/09 14:37:57;;;;;;;;;;;;;;;;;;4928399;28;20374;-69
2022/07/09 14:40:25;;;;;;;;;;;;;;;;;;4942255;28;20046;-68
2022/07/09 14:42:50;;;;;;;;;;;;;;;;;;4928715;28;19922;-68
2022/07/09 14:45:16;;;;;;;;;;;;;;;;;;4938450;28;19954;-69
2022/07/09 14:47:41;;;;;;;;;;;;;;;;;;4924277;28;19929;-69
2022/07/09 14:50:06;;;;;;;;;;;;;;;;;;4923690;28;19969;-63
2022/07/09 14:52:32;;;;;;;;;;;;;;;;;;4942779;28;19930;-67
2022/07/09 14:55:00;;;;;;;;;;;;;;;;;;4944588;28;19926;-66
2022/07/09 14:57:25;;;;;;;;;;;;;;;;;;4929244;28;20057;-66
2022/07/09 14:59:54;;;;;;;;;;;;;;;;;;4940210;28;19922;-64
2022/07/09 15:02:19;;;;;;;;;;;;;;;;;;4926417;28;19976;-65
2022/07/09 15:04:48;;;;;;;;;;;;;;;;;;4928831;28;19930;-71
2022/07/09 15:07:13;;;;;;;;;;;;;;;;;;4926738;28;19923;-65
2022/07/09 15:09:39;;;;;;;;;;;;;;;;;;4926325;28;20049;-68
2022/07/09 15:12:05;;;;;;;;;;;;;;;;;;4927639;28;19981;-67
2022/07/09 15:14:30;;;;;;;;;;;;;;;;;;4927317;28;20022;-68
2022/07/09 15:16:56;;;;;;;;;;;;;;;;;;4928379;28;19918;-69
2022/07/09 15:19:24;;;;;;;;;;;;;;;;;;4942797;28;20432;-68
2022/07/09 15:21:49;;;;;;;;;;;;;;;;;;4941510;28;19931;-66
2022/07/09 15:24:19;;;;;;;;;;;;;;;;;;4941756;28;19926;-66
2022/07/09 15:26:45;;;;;;;;;;;;;;;;;;4942159;28;19926;-66
2022/07/09 15:29:10;;;;;;;;;;;;;;;;;;4942055;28;19982;-68
2022/07/09 15:31:36;;;;;;;;;;;;;;;;;;4941162;28;19926;-66
2022/07/09 15:34:04;;;;;;;;;;;;;;;;;;4927642;28;19922;-65
2022/07/09 15:36:29;;;;;;;;;;;;;;;;;;4928753;28;19922;-68
2022/07/09 15:38:54;;;;;;;;;;;;;;;;;;4941471;28;19918;-65
2022/07/09 15:41:22;;;;;;;;;;;;;;;;;;4923863;28;20656;-70
2022/07/09 15:43:47;;;;;;;;;;;;;;;;;;4941961;28;19933;-69
2022/07/09 15:46:13;;;;;;;;;;;;;;;;;;4925524;28;19990;-68
2022/07/09 15:48:38;;;;;;;;;;;;;;;;;;4925671;28;20510;-68
2022/07/09 15:51:04;;;;;;;;;;;;;;;;;;4927625;28;19927;-70
2022/07/09 15:53:29;;;;;;;;;;;;;;;;;;4941258;28;19985;-67
2022/07/09 15:55:54;;;;;;;;;;;;;;;;;;4926991;28;20022;-69
2022/07/09 15:58:19;;;;;;;;;;;;;;;;;;4923970;28;19981;-67
2022/07/09 16:00:45;;;;;;;;;;;;;;;;;;4925131;28;19929;-68
2022/07/09 16:03:12;;;;;;;;;;;;;;;;;;4909396;28;20020;-66
2022/07/09 16:05:38;;;;;;;;;;;;;;;;;;4924203;28;20486;-66
2022/07/09 16:08:04;;;;;;;;;;;;;;;;;;4926959;28;19926;-68
2022/07/09 16:10:29;;;;;;;;;;;;;;;;;;4942086;28;20983;-68
2022/07/09 16:12:58;;;;;;;;;;;;;;;;;;4927290;28;20017;-69
2022/07/09 16:15:26;;;;;;;;;;;;;;;;;;4942171;28;19930;-65
2022/07/09 16:17:52;;;;;;;;;;;;;;;;;;4927578;28;19926;-67
2022/07/09 16:20:18;;;;;;;;;;;;;;;;;;4944148;28;19926;-66
2022/07/09 16:22:44;;;;;;;;;;;;;;;;;;4930526;28;19919;-65
2022/07/09 16:25:14;;;;;;;;;;;;;;;;;;4928142;28;20003;-70
2022/07/09 16:27:44;;;;;;;;;;;;;;;;;;4930055;28;20382;-63
2022/07/09 16:30:09;;;;;;;;;;;;;;;;;;4929267;28;19934;-66
2022/07/09 16:32:35;;;;;;;;;;;;;;;;;;4924840;28;19919;-70
2022/07/09 16:35:00;;;;;;;;;;;;;;;;;;4942746;28;19934;-69
2022/07/09 16:37:32;;;;;;;;;;;;;;;;;;4930700;28;20006;-64
2022/07/09 16:39:59;;;;;;;;;;;;;;;;;;4930941;28;21760;-67
2022/07/09 16:42:24;;;;;;;;;;;;;;;;;;4944773;28;19989;-69